createdAt,value
2022-11-25T00:00:46.985Z,1.56
2022-11-25T00:01:47.016Z,1.56
2022-11-25T00:02:47.096Z,1.53
2022-11-25T00:03:46.948Z,1.50
2022-11-25T00:04:46.952Z,1.49
2022-11-25T00:05:46.926Z,1.48
2022-11-25T00:06:46.921Z,1.48
2022-11-25T00:07:46.987Z,1.48
2022-11-25T00:08:46.901Z,1.42
2022-11-25T00:09:46.871Z,1.40
2022-11-25T00:10:46.865Z,1.38
2022-11-25T00:11:46.840Z,1.40
2022-11-25T00:12:46.824Z,1.38
2022-11-25T00:13:46.825Z,1.40
2022-11-25T00:14:46.812Z,1.40
2022-11-25T00:15:46.796Z,1.38
2022-11-25T00:16:48.861Z,1.40
2022-11-25T00:17:46.763Z,1.42
2022-11-25T00:18:46.752Z,1.45
2022-11-25T00:19:46.740Z,1.48
2022-11-25T00:20:46.727Z,1.49
2022-11-25T00:21:46.711Z,1.50
2022-11-25T00:22:46.697Z,1.53
2022-11-25T00:23:46.715Z,1.56
2022-11-25T00:24:46.671Z,1.53
2022-11-25T00:25:46.664Z,1.49
2022-11-25T00:26:46.652Z,1.49
2022-11-25T00:27:46.641Z,1.53
2022-11-25T00:28:46.616Z,1.58
2022-11-25T00:29:46.600Z,1.60
2022-11-25T00:30:46.589Z,1.67
2022-11-25T00:31:46.623Z,1.68
2022-11-25T00:32:46.565Z,1.67
2022-11-25T00:33:46.558Z,1.62
2022-11-25T00:34:46.534Z,1.62
2022-11-25T00:35:46.533Z,1.60
2022-11-25T00:36:46.511Z,1.58
2022-11-25T00:37:46.510Z,1.56
2022-11-25T00:38:46.489Z,1.56
2022-11-25T00:39:46.505Z,1.56
2022-11-25T00:40:46.463Z,1.56
2022-11-25T00:41:46.445Z,1.58
2022-11-25T00:42:46.436Z,1.56
2022-11-25T00:43:46.425Z,1.56
2022-11-25T00:44:46.421Z,1.52
2022-11-25T00:45:46.448Z,1.49
2022-11-25T00:46:46.381Z,1.49
2022-11-25T00:47:46.371Z,1.45
2022-11-25T00:48:46.352Z,1.44
2022-11-25T00:49:46.349Z,1.41
2022-11-25T00:50:46.330Z,1.48
2022-11-25T00:51:46.313Z,1.49
2022-11-25T00:52:46.305Z,1.52
2022-11-25T00:53:46.288Z,1.52
2022-11-25T00:54:46.280Z,1.52
2022-11-25T00:55:46.283Z,1.50
2022-11-25T00:56:46.245Z,1.55
2022-11-25T00:57:46.243Z,1.56
2022-11-25T00:58:46.217Z,1.56
2022-11-25T00:59:46.219Z,1.56
2022-11-25T01:00:46.256Z,1.59
2022-11-25T01:01:46.277Z,1.59
2022-11-25T01:02:46.284Z,1.53
2022-11-25T01:03:46.160Z,1.53
2022-11-25T01:04:46.155Z,1.50
2022-11-25T01:05:46.127Z,1.50
2022-11-25T01:06:46.116Z,1.52
2022-11-25T01:07:46.206Z,1.52
2022-11-25T01:08:46.096Z,1.44
2022-11-25T01:09:46.073Z,1.40
2022-11-25T01:10:46.055Z,1.35
2022-11-25T01:11:46.077Z,1.32
2022-11-25T01:12:46.031Z,1.31
2022-11-25T01:13:46.022Z,1.31
2022-11-25T01:14:46.003Z,1.32
2022-11-25T01:15:45.994Z,1.35
2022-11-25T01:16:46.088Z,1.35
2022-11-25T01:17:45.967Z,1.35
2022-11-25T01:18:45.959Z,1.38
2022-11-25T01:19:45.935Z,1.41
2022-11-25T01:20:45.927Z,1.40
2022-11-25T01:21:45.915Z,1.40
2022-11-25T01:22:45.910Z,1.41
2022-11-25T01:23:45.891Z,1.38
2022-11-25T01:24:45.878Z,1.37
2022-11-25T01:25:45.859Z,1.37
2022-11-25T01:26:45.864Z,1.35
2022-11-25T01:27:45.858Z,1.40
2022-11-25T01:28:45.823Z,1.40
2022-11-25T01:29:45.811Z,1.40
2022-11-25T01:30:45.806Z,1.41
2022-11-25T01:31:45.874Z,1.42
2022-11-25T01:32:45.773Z,1.44
2022-11-25T01:33:45.773Z,1.44
2022-11-25T01:34:45.748Z,1.42
2022-11-25T01:35:45.743Z,1.44
2022-11-25T01:36:45.721Z,1.42
2022-11-25T01:37:45.713Z,1.38
2022-11-25T01:38:45.695Z,1.41
2022-11-25T01:39:45.689Z,1.42
2022-11-25T01:40:45.675Z,1.40
2022-11-25T01:41:45.662Z,1.35
2022-11-25T01:42:45.658Z,1.31
2022-11-25T01:43:45.664Z,1.30
2022-11-25T01:44:45.627Z,1.28
2022-11-25T01:45:45.650Z,1.26
2022-11-25T01:46:45.595Z,1.30
2022-11-25T01:47:45.589Z,1.31
2022-11-25T01:48:45.575Z,1.32
2022-11-25T01:49:45.560Z,1.34
2022-11-25T01:50:45.550Z,1.32
2022-11-25T01:51:45.531Z,1.37
2022-11-25T01:52:45.521Z,1.38
2022-11-25T01:53:45.515Z,1.44
2022-11-25T01:54:45.496Z,1.49
2022-11-25T01:55:45.486Z,1.50
2022-11-25T01:56:45.475Z,1.49
2022-11-25T01:57:45.464Z,1.44
2022-11-25T01:58:45.443Z,1.41
2022-11-25T01:59:45.464Z,1.42
2022-11-25T02:00:45.458Z,1.41
2022-11-25T02:01:45.490Z,1.40
2022-11-25T02:02:45.480Z,1.38
2022-11-25T02:03:45.386Z,1.42
2022-11-25T02:04:45.375Z,1.44
2022-11-25T02:05:45.357Z,1.44
2022-11-25T02:06:45.343Z,1.48
2022-11-25T02:07:45.417Z,1.48
2022-11-25T02:08:45.323Z,1.48
2022-11-25T02:09:45.303Z,1.44
2022-11-25T02:10:45.297Z,1.44
2022-11-25T02:11:45.278Z,1.45
2022-11-25T02:12:45.265Z,1.45
2022-11-25T02:13:45.261Z,1.48
2022-11-25T02:14:45.245Z,1.48
2022-11-25T02:15:45.259Z,1.45
2022-11-25T02:16:45.268Z,1.42
2022-11-25T02:17:45.201Z,1.44
2022-11-25T02:18:45.192Z,1.45
2022-11-25T02:19:45.176Z,1.45
2022-11-25T02:20:45.166Z,1.45
2022-11-25T02:21:45.161Z,1.41
2022-11-25T02:22:45.140Z,1.42
2022-11-25T02:23:45.128Z,1.41
2022-11-25T02:24:45.113Z,1.40
2022-11-25T02:25:45.101Z,1.35
2022-11-25T02:26:45.088Z,1.34
2022-11-25T02:27:45.076Z,1.34
2022-11-25T02:28:45.074Z,1.34
2022-11-25T02:29:45.058Z,1.34
2022-11-25T02:30:45.039Z,1.32
2022-11-25T02:31:45.098Z,1.32
2022-11-25T02:32:45.014Z,1.34
2022-11-25T02:33:45.008Z,1.32
2022-11-25T02:34:44.999Z,1.26
2022-11-25T02:35:44.989Z,1.23
2022-11-25T02:36:44.969Z,1.23
2022-11-25T02:37:44.957Z,1.22
2022-11-25T02:38:44.936Z,1.17
2022-11-25T02:39:44.931Z,1.20
2022-11-25T02:40:44.932Z,1.22
2022-11-25T02:41:44.911Z,1.23
2022-11-25T02:42:44.892Z,1.24
2022-11-25T02:43:44.885Z,1.23
2022-11-25T02:44:44.868Z,1.22
2022-11-25T02:45:44.945Z,1.19
2022-11-25T02:46:44.846Z,1.19
2022-11-25T02:47:44.856Z,1.20
2022-11-25T02:49:07.846Z,1.20
2022-11-25T02:49:45.842Z,1.22
2022-11-25T02:50:44.799Z,1.24
2022-11-25T02:51:44.832Z,1.26
2022-11-25T02:52:44.777Z,1.26
2022-11-25T02:53:44.756Z,1.26
2022-11-25T02:54:44.752Z,1.32
2022-11-25T02:55:44.726Z,1.32
2022-11-25T02:56:44.718Z,1.30
2022-11-25T02:57:44.711Z,1.24
2022-11-25T02:58:44.703Z,1.28
2022-11-25T02:59:44.679Z,1.30
2022-11-25T03:00:44.725Z,1.35
2022-11-25T03:01:44.730Z,1.35
2022-11-25T03:02:44.696Z,1.35
2022-11-25T03:03:44.662Z,1.35
2022-11-25T03:04:44.620Z,1.40
2022-11-25T03:05:44.612Z,1.41
2022-11-25T03:06:44.599Z,1.41
2022-11-25T03:07:44.715Z,1.42
2022-11-25T03:08:44.577Z,1.42
2022-11-25T03:09:44.565Z,1.38
2022-11-25T03:10:44.546Z,1.34
2022-11-25T03:11:44.532Z,1.32
2022-11-25T03:12:44.529Z,1.32
2022-11-25T03:13:44.518Z,1.32
2022-11-25T03:14:44.500Z,1.32
2022-11-25T03:15:44.481Z,1.34
2022-11-25T03:16:44.595Z,1.34
2022-11-25T03:17:44.459Z,1.37
2022-11-25T03:18:44.453Z,1.40
2022-11-25T03:19:44.467Z,1.35
2022-11-25T03:20:44.420Z,1.35
2022-11-25T03:21:44.408Z,1.37
2022-11-25T03:22:44.404Z,1.35
2022-11-25T03:23:44.388Z,1.35
2022-11-25T03:24:44.379Z,1.37
2022-11-25T03:25:44.359Z,1.35
2022-11-25T03:26:44.355Z,1.32
2022-11-25T03:27:44.343Z,1.34
2022-11-25T03:28:44.330Z,1.34
2022-11-25T03:29:44.319Z,1.37
2022-11-25T03:30:44.295Z,1.35
2022-11-25T03:31:44.416Z,1.34
2022-11-25T03:32:44.293Z,1.35
2022-11-25T03:33:44.266Z,1.34
2022-11-25T03:34:44.246Z,1.34
2022-11-25T03:35:44.268Z,1.35
2022-11-25T03:36:44.320Z,1.35
2022-11-25T03:37:44.211Z,1.40
2022-11-25T03:38:44.202Z,1.42
2022-11-25T03:39:44.188Z,1.42
2022-11-25T03:40:44.178Z,1.42
2022-11-25T03:41:44.170Z,1.44
2022-11-25T03:42:44.152Z,1.44
2022-11-25T03:43:44.148Z,1.44
2022-11-25T03:44:44.123Z,1.44
2022-11-25T03:45:44.189Z,1.45
2022-11-25T03:46:44.119Z,1.49
2022-11-25T03:47:44.103Z,1.50
2022-11-25T03:48:44.081Z,1.48
2022-11-25T03:49:44.060Z,1.50
2022-11-25T03:50:44.055Z,1.53
2022-11-25T03:51:44.116Z,1.52
2022-11-25T03:52:44.050Z,1.52
2022-11-25T03:53:44.009Z,1.52
2022-11-25T03:54:44.009Z,1.53
2022-11-25T03:55:43.985Z,1.52
2022-11-25T03:56:43.977Z,1.52
2022-11-25T03:57:43.969Z,1.53
2022-11-25T03:58:43.953Z,1.50
2022-11-25T03:59:43.943Z,1.48
2022-11-25T04:00:43.920Z,1.49
2022-11-25T04:01:44.572Z,1.45
2022-11-25T04:02:43.957Z,1.44
2022-11-25T04:03:43.887Z,1.40
2022-11-25T04:04:43.878Z,1.40
2022-11-25T04:05:43.859Z,1.41
2022-11-25T04:06:43.854Z,1.42
2022-11-25T04:07:43.941Z,1.42
2022-11-25T04:08:43.832Z,1.44
2022-11-25T04:09:43.814Z,1.42
2022-11-25T04:10:43.812Z,1.41
2022-11-25T04:11:43.785Z,1.41
2022-11-25T04:12:43.775Z,1.44
2022-11-25T04:13:43.762Z,1.50
2022-11-25T04:14:43.750Z,1.52
2022-11-25T04:15:43.734Z,1.52
2022-11-25T04:16:43.806Z,1.52
2022-11-25T04:17:43.718Z,1.49
2022-11-25T04:18:43.694Z,1.45
2022-11-25T04:19:43.690Z,1.41
2022-11-25T04:20:43.673Z,1.42
2022-11-25T04:21:47.951Z,1.44
2022-11-25T04:22:44.692Z,1.49
2022-11-25T04:23:43.655Z,1.50
2022-11-25T04:24:43.618Z,1.52
2022-11-25T04:25:43.614Z,1.50
2022-11-25T04:26:43.594Z,1.44
2022-11-25T04:27:43.588Z,1.42
2022-11-25T04:28:43.576Z,1.42
2022-11-25T04:29:43.566Z,1.41
2022-11-25T04:30:43.619Z,1.41
2022-11-25T04:31:43.538Z,1.38
2022-11-25T04:32:43.524Z,1.35
2022-11-25T04:33:46.049Z,1.35
2022-11-25T04:34:44.543Z,1.40
2022-11-25T04:35:43.482Z,1.42
2022-11-25T04:36:43.471Z,1.45
2022-11-25T04:37:43.464Z,1.49
2022-11-25T04:38:43.459Z,1.50
2022-11-25T04:39:43.455Z,1.52
2022-11-25T04:40:43.425Z,1.56
2022-11-25T04:41:43.411Z,1.56
2022-11-25T04:42:43.395Z,1.58
2022-11-25T04:43:43.385Z,1.59
2022-11-25T04:44:52.092Z,1.62
2022-11-25T04:46:12.435Z,1.62
2022-11-25T04:46:43.424Z,1.62
2022-11-25T04:47:43.342Z,1.62
2022-11-25T04:48:43.332Z,1.63
2022-11-25T04:49:43.308Z,1.67
2022-11-25T04:50:43.296Z,1.71
2022-11-25T04:51:43.296Z,1.76
2022-11-25T04:52:43.281Z,1.77
2022-11-25T04:53:43.259Z,1.76
2022-11-25T04:54:43.244Z,1.73
2022-11-25T04:55:43.260Z,1.73
2022-11-25T04:56:43.223Z,1.74
2022-11-25T04:57:43.231Z,1.76
2022-11-25T04:58:43.194Z,1.76
2022-11-25T04:59:43.196Z,1.77
2022-11-25T05:00:43.172Z,1.77
2022-11-25T05:01:43.299Z,1.80
2022-11-25T05:02:43.284Z,1.78
2022-11-25T05:03:48.797Z,1.76
2022-11-25T05:04:44.179Z,1.74
2022-11-25T05:05:43.118Z,1.71
2022-11-25T05:06:43.105Z,1.70
2022-11-25T05:07:43.150Z,1.66
2022-11-25T05:08:43.076Z,1.63
2022-11-25T05:09:43.060Z,1.62
2022-11-25T05:10:43.060Z,1.62
2022-11-25T05:11:43.067Z,1.67
2022-11-25T05:12:43.039Z,1.68
2022-11-25T05:13:43.017Z,1.70
2022-11-25T05:14:42.999Z,1.71
2022-11-25T05:15:43.001Z,1.73
2022-11-25T05:16:43.058Z,1.71
2022-11-25T05:17:42.961Z,1.73
2022-11-25T05:18:42.951Z,1.71
2022-11-25T05:19:42.938Z,1.68
2022-11-25T05:20:42.934Z,1.67
2022-11-25T05:21:42.911Z,1.66
2022-11-25T05:22:42.909Z,1.60
2022-11-25T05:23:42.889Z,1.56
2022-11-25T05:24:42.876Z,1.55
2022-11-25T05:25:42.869Z,1.55
2022-11-25T05:26:42.860Z,1.53
2022-11-25T05:27:42.870Z,1.56
2022-11-25T05:28:42.828Z,1.58
2022-11-25T05:29:42.825Z,1.60
2022-11-25T05:30:42.852Z,1.60
2022-11-25T05:31:42.808Z,1.59
2022-11-25T05:32:42.780Z,1.58
2022-11-25T05:33:42.765Z,1.60
2022-11-25T05:34:42.756Z,1.62
2022-11-25T05:35:42.747Z,1.63
2022-11-25T05:36:42.738Z,1.63
2022-11-25T05:37:42.713Z,1.67
2022-11-25T05:38:42.704Z,1.70
2022-11-25T05:39:42.686Z,1.68
2022-11-25T05:40:42.675Z,1.66
2022-11-25T05:41:42.686Z,1.63
2022-11-25T05:42:42.661Z,1.60
2022-11-25T05:43:42.677Z,1.60
2022-11-25T05:44:42.629Z,1.62
2022-11-25T05:45:42.665Z,1.63
2022-11-25T05:46:42.601Z,1.63
2022-11-25T05:47:42.590Z,1.68
2022-11-25T05:48:42.586Z,1.71
2022-11-25T05:49:42.568Z,1.73
2022-11-25T05:50:42.549Z,1.68
2022-11-25T05:51:42.538Z,1.66
2022-11-25T05:52:42.545Z,1.66
2022-11-25T05:53:42.515Z,1.63
2022-11-25T05:54:42.500Z,1.66
2022-11-25T05:55:42.487Z,1.66
2022-11-25T05:56:42.476Z,1.70
2022-11-25T05:57:42.468Z,1.71
2022-11-25T05:58:42.457Z,1.70
2022-11-25T05:59:42.478Z,1.73
2022-11-25T06:00:42.430Z,1.74
2022-11-25T06:01:42.413Z,1.74
2022-11-25T06:02:42.506Z,1.73
2022-11-25T06:03:42.519Z,1.73
2022-11-25T06:04:42.375Z,1.73
2022-11-25T06:05:42.365Z,1.71
2022-11-25T06:06:42.354Z,1.71
2022-11-25T06:07:42.460Z,1.70
2022-11-25T06:08:42.334Z,1.67
2022-11-25T06:09:42.319Z,1.67
2022-11-25T06:10:42.307Z,1.62
2022-11-25T06:11:42.296Z,1.62
2022-11-25T06:12:42.281Z,1.62
2022-11-25T06:13:42.269Z,1.62
2022-11-25T06:14:42.256Z,1.63
2022-11-25T06:15:42.354Z,1.63
2022-11-25T06:16:42.229Z,1.66
2022-11-25T06:17:42.213Z,1.66
2022-11-25T06:18:42.203Z,1.66
2022-11-25T06:19:42.189Z,1.66
2022-11-25T06:20:42.179Z,1.67
2022-11-25T06:21:42.160Z,1.68
2022-11-25T06:22:42.149Z,1.67
2022-11-25T06:23:42.144Z,1.66
2022-11-25T06:24:42.133Z,1.70
2022-11-25T06:25:42.123Z,1.71
2022-11-25T06:26:42.105Z,1.71
2022-11-25T06:28:04.980Z,1.71
2022-11-25T06:28:43.120Z,1.73
2022-11-25T06:29:42.064Z,1.71
2022-11-25T06:30:42.049Z,1.73
2022-11-25T06:31:42.172Z,1.76
2022-11-25T06:32:42.031Z,1.80
2022-11-25T06:33:42.017Z,1.80
2022-11-25T06:34:42.001Z,1.78
2022-11-25T06:35:41.989Z,1.81
2022-11-25T06:36:41.974Z,1.80
2022-11-25T06:37:41.969Z,1.78
2022-11-25T06:38:41.954Z,1.77
2022-11-25T06:39:41.935Z,1.77
2022-11-25T06:40:41.929Z,1.78
2022-11-25T06:41:41.920Z,1.77
2022-11-25T06:42:41.897Z,1.76
2022-11-25T06:43:41.894Z,1.78
2022-11-25T06:44:41.876Z,1.81
2022-11-25T06:45:41.863Z,1.87
2022-11-25T06:46:41.937Z,1.89
2022-11-25T06:47:41.864Z,1.92
2022-11-25T06:48:41.831Z,1.94
2022-11-25T06:49:41.811Z,1.94
2022-11-25T06:50:41.807Z,1.91
2022-11-25T06:51:41.785Z,1.89
2022-11-25T06:52:41.770Z,1.88
2022-11-25T06:53:41.763Z,1.88
2022-11-25T06:54:41.751Z,1.88
2022-11-25T06:55:41.738Z,1.87
2022-11-25T06:56:41.728Z,1.84
2022-11-25T06:57:41.720Z,1.84
2022-11-25T06:58:41.718Z,1.81
2022-11-25T06:59:41.691Z,1.80
2022-11-25T07:00:41.681Z,1.84
2022-11-25T07:01:41.727Z,1.85
2022-11-25T07:02:46.620Z,1.84
2022-11-25T07:03:42.701Z,1.84
2022-11-25T07:04:41.627Z,1.87
2022-11-25T07:05:41.614Z,1.88
2022-11-25T07:06:41.614Z,1.92
2022-11-25T07:07:41.661Z,1.94
2022-11-25T07:08:41.583Z,1.97
2022-11-25T07:09:41.582Z,2.00
2022-11-25T07:10:41.556Z,2.04
2022-11-25T07:11:41.534Z,2.08
2022-11-25T07:12:41.534Z,2.11
2022-11-25T07:13:41.517Z,2.13
2022-11-25T07:14:41.501Z,2.15
2022-11-25T07:15:41.585Z,2.18
2022-11-25T07:16:43.724Z,2.24
2022-11-25T07:17:41.462Z,2.22
2022-11-25T07:18:41.450Z,2.24
2022-11-25T07:19:41.468Z,2.26
2022-11-25T07:20:41.428Z,2.28
2022-11-25T07:21:41.419Z,2.28
2022-11-25T07:22:41.403Z,2.31
2022-11-25T07:23:41.391Z,2.33
2022-11-25T07:24:41.381Z,2.38
2022-11-25T07:25:41.361Z,2.38
2022-11-25T07:26:41.357Z,2.43
2022-11-25T07:27:41.338Z,2.42
2022-11-25T07:28:41.332Z,2.43
2022-11-25T07:29:58.229Z,2.44
2022-11-25T07:31:22.126Z,2.43
2022-11-25T07:31:42.314Z,2.46
2022-11-25T07:32:41.274Z,2.49
2022-11-25T07:33:41.318Z,2.50
2022-11-25T07:34:41.254Z,2.49
2022-11-25T07:35:41.265Z,2.51
2022-11-25T07:36:41.242Z,2.51
2022-11-25T07:37:41.215Z,2.53
2022-11-25T07:38:46.319Z,2.56
2022-11-25T07:39:41.188Z,2.60
2022-11-25T07:40:41.172Z,2.62
2022-11-25T07:41:41.163Z,2.65
2022-11-25T07:42:41.145Z,2.68
2022-11-25T07:43:41.134Z,2.68
2022-11-25T07:44:41.128Z,2.71
2022-11-25T07:45:41.119Z,2.74
2022-11-25T07:46:41.122Z,2.75
2022-11-25T07:47:41.097Z,2.80
2022-11-25T07:48:41.068Z,2.79
2022-11-25T07:49:41.074Z,2.80
2022-11-25T07:50:41.053Z,2.82
2022-11-25T07:51:41.063Z,2.82
2022-11-25T07:52:41.033Z,2.83
2022-11-25T07:53:41.023Z,2.86
2022-11-25T07:54:41.007Z,2.89
2022-11-25T07:55:40.985Z,2.93
2022-11-25T07:56:40.983Z,3.00
2022-11-25T07:57:40.971Z,3.04
2022-11-25T07:58:45.744Z,3.08
2022-11-25T07:59:40.940Z,3.11
2022-11-25T08:00:40.933Z,3.16
2022-11-25T08:01:41.018Z,3.22
2022-11-25T08:02:40.987Z,3.23
2022-11-25T08:03:40.895Z,3.26
2022-11-25T08:04:40.885Z,3.29
2022-11-25T08:05:40.867Z,3.32
2022-11-25T08:06:40.857Z,3.32
2022-11-25T08:07:40.935Z,3.31
2022-11-25T08:08:40.832Z,3.31
2022-11-25T08:09:40.819Z,3.31
2022-11-25T08:10:40.811Z,3.31
2022-11-25T08:11:40.804Z,3.32
2022-11-25T08:12:40.784Z,3.41
2022-11-25T08:13:40.786Z,3.51
2022-11-25T08:14:40.762Z,4.52
2022-11-25T08:15:40.795Z,5.28
2022-11-25T08:16:40.730Z,5.79
2022-11-25T08:17:40.713Z,6.05
2022-11-25T08:18:40.708Z,6.20
2022-11-25T08:19:40.684Z,6.01
2022-11-25T08:20:40.688Z,5.94
2022-11-25T08:21:40.672Z,5.91
2022-11-25T08:22:40.655Z,5.97
2022-11-25T08:23:40.660Z,5.91
2022-11-25T08:24:40.630Z,5.90
2022-11-25T08:25:40.616Z,6.04
2022-11-25T08:26:40.607Z,5.79
2022-11-25T08:27:40.688Z,5.53
2022-11-25T08:28:40.578Z,5.28
2022-11-25T08:29:40.574Z,5.10
2022-11-25T08:30:40.585Z,5.05
2022-11-25T08:31:40.592Z,4.93
2022-11-25T08:32:40.538Z,4.80
2022-11-25T08:33:40.519Z,4.75
2022-11-25T08:34:40.507Z,4.67
2022-11-25T08:35:40.498Z,4.60
2022-11-25T08:36:43.806Z,4.60
2022-11-25T08:37:41.502Z,4.60
2022-11-25T08:38:40.472Z,4.58
2022-11-25T08:39:56.443Z,4.56
2022-11-25T08:40:41.468Z,4.56
2022-11-25T08:41:40.421Z,4.55
2022-11-25T08:42:40.411Z,4.52
2022-11-25T08:43:40.387Z,4.56
2022-11-25T08:44:40.383Z,4.55
2022-11-25T08:45:40.375Z,4.48
2022-11-25T08:46:40.434Z,4.53
2022-11-25T08:47:40.349Z,4.52
2022-11-25T08:48:40.339Z,4.44
2022-11-25T08:49:41.649Z,4.42
2022-11-25T08:50:40.301Z,4.38
2022-11-25T08:51:40.289Z,4.28
2022-11-25T08:52:40.285Z,4.26
2022-11-25T08:53:40.266Z,4.35
2022-11-25T08:54:40.262Z,4.41
2022-11-25T08:55:40.267Z,4.45
2022-11-25T08:56:40.230Z,4.42
2022-11-25T08:57:40.212Z,4.48
2022-11-25T08:58:40.210Z,4.52
2022-11-25T08:59:40.427Z,4.55
2022-11-25T09:00:40.189Z,4.58
2022-11-25T09:01:40.247Z,4.62
2022-11-25T09:02:40.206Z,4.67
2022-11-25T09:03:40.140Z,4.68
2022-11-25T09:04:40.134Z,4.70
2022-11-25T09:05:40.128Z,4.68
2022-11-25T09:06:40.105Z,4.62
2022-11-25T09:07:40.209Z,4.60
2022-11-25T09:08:40.091Z,4.63
2022-11-25T09:09:40.464Z,4.62
2022-11-25T09:10:40.055Z,4.67
2022-11-25T09:11:40.145Z,4.70
2022-11-25T09:12:40.030Z,4.74
2022-11-25T09:13:40.203Z,4.78
2022-11-25T09:14:40.001Z,4.86
2022-11-25T09:15:40.064Z,4.94
2022-11-25T09:16:40.097Z,4.93
2022-11-25T09:17:40.064Z,4.99
2022-11-25T09:18:39.967Z,5.02
2022-11-25T09:19:39.947Z,5.08
2022-11-25T09:20:39.933Z,5.15
2022-11-25T09:21:39.919Z,5.21
2022-11-25T09:22:39.903Z,5.25
2022-11-25T09:23:39.892Z,5.29
2022-11-25T09:24:39.878Z,5.35
2022-11-25T09:25:39.880Z,5.39
2022-11-25T09:26:39.849Z,5.41
2022-11-25T09:27:39.865Z,5.44
2022-11-25T09:28:39.822Z,5.47
2022-11-25T09:29:40.075Z,5.51
2022-11-25T09:30:39.832Z,5.56
2022-11-25T09:31:39.831Z,5.59
2022-11-25T09:32:39.787Z,5.57
2022-11-25T09:33:39.774Z,5.62
2022-11-25T09:34:39.751Z,5.66
2022-11-25T09:35:39.734Z,5.69
2022-11-25T09:36:39.735Z,5.71
2022-11-25T09:37:39.712Z,5.72
2022-11-25T09:38:43.166Z,5.75
2022-11-25T09:39:39.854Z,5.80
2022-11-25T09:40:39.676Z,5.83
2022-11-25T09:41:39.655Z,5.86
2022-11-25T09:42:39.657Z,5.86
2022-11-25T09:43:39.670Z,5.89
2022-11-25T09:44:39.614Z,5.87
2022-11-25T09:45:39.610Z,5.89
2022-11-25T09:46:39.693Z,5.97
2022-11-25T09:47:45.192Z,6.01
2022-11-25T09:48:40.593Z,6.05
2022-11-25T09:49:39.782Z,6.04
2022-11-25T09:50:39.541Z,6.11
2022-11-25T09:51:39.534Z,6.19
2022-11-25T09:52:39.529Z,6.24
2022-11-25T09:53:39.507Z,6.27
2022-11-25T09:54:39.489Z,6.24
2022-11-25T09:55:39.479Z,6.20
2022-11-25T09:56:39.475Z,6.14
2022-11-25T09:57:39.455Z,6.12
2022-11-25T09:58:39.439Z,6.11
2022-11-25T09:59:39.655Z,6.11
2022-11-25T10:00:39.417Z,6.07
2022-11-25T10:01:39.397Z,6.08
2022-11-25T10:02:39.592Z,6.07
2022-11-25T10:03:39.438Z,6.04
2022-11-25T10:04:39.367Z,6.04
2022-11-25T10:05:39.354Z,6.01
2022-11-25T10:06:39.385Z,6.02
2022-11-25T10:07:39.325Z,5.99
2022-11-25T10:08:39.318Z,6.01
2022-11-25T10:09:39.604Z,6.05
2022-11-25T10:10:39.298Z,6.08
2022-11-25T10:11:39.279Z,6.09
2022-11-25T10:12:39.263Z,6.08
2022-11-25T10:13:39.245Z,6.12
2022-11-25T10:14:39.238Z,6.17
2022-11-25T10:15:39.309Z,6.20
2022-11-25T10:16:39.289Z,6.26
2022-11-25T10:17:39.203Z,6.33
2022-11-25T10:18:39.177Z,6.36
2022-11-25T10:19:39.386Z,6.42
2022-11-25T10:20:39.155Z,6.48
2022-11-25T10:21:39.147Z,6.56
2022-11-25T10:22:39.122Z,6.56
2022-11-25T10:23:39.106Z,6.48
2022-11-25T10:24:41.376Z,6.51
2022-11-25T10:25:39.093Z,6.60
2022-11-25T10:26:39.085Z,6.64
2022-11-25T10:27:39.057Z,6.62
2022-11-25T10:28:39.053Z,6.69
2022-11-25T10:29:39.038Z,6.77
2022-11-25T10:30:39.023Z,6.95
2022-11-25T10:31:39.090Z,7.20
2022-11-25T10:32:38.995Z,7.18
2022-11-25T10:33:38.973Z,7.20
2022-11-25T10:34:39.231Z,7.14
2022-11-25T10:35:38.953Z,7.07
2022-11-25T10:36:38.942Z,6.97
2022-11-25T10:37:38.927Z,6.95
2022-11-25T10:38:38.914Z,6.93
2022-11-25T10:39:38.897Z,6.81
2022-11-25T10:40:38.880Z,6.81
2022-11-25T10:41:38.871Z,6.81
2022-11-25T10:42:38.865Z,6.82
2022-11-25T10:43:38.853Z,6.78
2022-11-25T10:44:39.155Z,6.78
2022-11-25T10:45:38.819Z,6.79
2022-11-25T10:47:11.851Z,6.78
2022-11-25T10:47:39.888Z,6.81
2022-11-25T10:48:43.927Z,6.84
2022-11-25T10:49:38.764Z,6.87
2022-11-25T10:50:38.756Z,6.87
2022-11-25T10:51:38.746Z,6.92
2022-11-25T10:52:38.733Z,6.95
2022-11-25T10:53:38.712Z,6.96
2022-11-25T10:54:38.701Z,6.93
2022-11-25T10:55:38.688Z,6.88
2022-11-25T10:56:38.685Z,6.85
2022-11-25T10:57:38.660Z,6.84
2022-11-25T10:58:38.642Z,6.72
2022-11-25T10:59:38.628Z,6.70
2022-11-25T11:00:38.645Z,6.72
2022-11-25T11:01:38.690Z,6.74
2022-11-25T11:02:38.636Z,6.72
2022-11-25T11:03:38.612Z,6.77
2022-11-25T11:04:38.870Z,6.75
2022-11-25T11:05:42.447Z,6.75
2022-11-25T11:06:39.611Z,6.69
2022-11-25T11:07:38.702Z,6.67
2022-11-25T11:08:38.520Z,6.67
2022-11-25T11:09:38.502Z,6.67
2022-11-25T11:10:38.480Z,6.67
2022-11-25T11:11:38.470Z,6.72
2022-11-25T11:12:38.463Z,6.75
2022-11-25T11:13:38.444Z,6.74
2022-11-25T11:14:38.780Z,6.78
2022-11-25T11:15:38.415Z,6.82
2022-11-25T11:16:38.474Z,6.88
2022-11-25T11:17:38.421Z,6.92
2022-11-25T11:18:38.377Z,6.99
2022-11-25T11:19:38.392Z,7.02
2022-11-25T11:20:38.350Z,7.05
2022-11-25T11:21:38.345Z,7.06
2022-11-25T11:22:38.321Z,7.14
2022-11-25T11:23:38.315Z,7.17
2022-11-25T11:24:38.592Z,7.17
2022-11-25T11:25:38.285Z,7.11
2022-11-25T11:26:38.271Z,7.06
2022-11-25T11:27:38.260Z,7.06
2022-11-25T11:28:38.239Z,7.03
2022-11-25T11:29:38.233Z,7.05
2022-11-25T11:30:38.214Z,7.02
2022-11-25T11:31:38.240Z,7.02
2022-11-25T11:32:38.192Z,7.07
2022-11-25T11:33:38.179Z,7.05
2022-11-25T11:34:38.420Z,7.03
2022-11-25T11:35:41.789Z,7.03
2022-11-25T11:36:38.132Z,7.07
2022-11-25T11:37:38.131Z,7.05
2022-11-25T11:38:38.108Z,7.06
2022-11-25T11:39:38.090Z,7.10
2022-11-25T11:40:38.090Z,7.11
2022-11-25T11:41:38.077Z,7.11
2022-11-25T11:42:38.056Z,7.11
2022-11-25T11:43:38.055Z,7.11
2022-11-25T11:44:38.416Z,7.13
2022-11-25T11:45:38.017Z,7.15
2022-11-25T11:46:38.088Z,7.15
2022-11-25T11:47:37.990Z,7.20
2022-11-25T11:48:37.979Z,7.23
2022-11-25T11:49:37.970Z,7.28
2022-11-25T11:50:37.955Z,7.31
2022-11-25T11:51:37.961Z,7.32
2022-11-25T11:52:37.926Z,7.33
2022-11-25T11:53:37.913Z,7.33
2022-11-25T11:54:38.135Z,7.35
2022-11-25T11:55:37.885Z,7.35
2022-11-25T11:56:37.879Z,7.38
2022-11-25T11:57:37.866Z,7.38
2022-11-25T11:58:37.854Z,7.35
2022-11-25T11:59:37.837Z,7.35
2022-11-25T12:00:37.816Z,7.35
2022-11-25T12:01:37.902Z,7.36
2022-11-25T12:02:37.798Z,7.39
2022-11-25T12:03:37.849Z,7.42
2022-11-25T12:04:38.113Z,7.42
2022-11-25T12:05:37.749Z,7.43
2022-11-25T12:06:37.733Z,7.43
2022-11-25T12:07:37.874Z,7.42
2022-11-25T12:08:37.716Z,7.42
2022-11-25T12:09:37.691Z,7.42
2022-11-25T12:10:37.687Z,7.45
2022-11-25T12:11:37.675Z,7.45
2022-11-25T12:12:37.650Z,7.45
2022-11-25T12:13:37.643Z,7.43
2022-11-25T12:14:38.043Z,7.45
2022-11-25T12:15:37.622Z,7.42
2022-11-25T12:16:37.698Z,7.43
2022-11-25T12:17:37.587Z,7.42
2022-11-25T12:18:37.575Z,7.42
2022-11-25T12:19:37.574Z,7.40
2022-11-25T12:20:37.553Z,7.38
2022-11-25T12:21:41.823Z,7.36
2022-11-25T12:22:37.531Z,7.32
2022-11-25T12:23:37.538Z,7.29
2022-11-25T12:24:37.759Z,7.31
2022-11-25T12:25:37.483Z,7.28
2022-11-25T12:26:37.478Z,7.24
2022-11-25T12:27:37.470Z,7.21
2022-11-25T12:28:37.448Z,7.20
2022-11-25T12:29:37.431Z,7.18
2022-11-25T12:30:37.432Z,7.18
2022-11-25T12:31:37.515Z,7.20
2022-11-25T12:32:37.390Z,7.17
2022-11-25T12:33:37.377Z,7.15
2022-11-25T12:34:37.560Z,7.11
2022-11-25T12:35:37.346Z,7.07
2022-11-25T12:36:37.346Z,7.05
2022-11-25T12:37:37.339Z,7.05
2022-11-25T12:38:37.316Z,7.06
2022-11-25T12:39:37.331Z,7.06
2022-11-25T12:40:37.292Z,7.05
2022-11-25T12:41:37.274Z,7.02
2022-11-25T12:42:37.262Z,7.03
2022-11-25T12:43:37.249Z,7.06
2022-11-25T12:44:37.539Z,7.13
2022-11-25T12:45:37.295Z,7.18
2022-11-25T12:46:37.221Z,7.23
2022-11-25T12:47:37.202Z,7.21
2022-11-25T12:48:37.187Z,7.20
2022-11-25T12:49:37.174Z,7.24
2022-11-25T12:50:37.159Z,7.25
2022-11-25T12:51:37.150Z,7.28
2022-11-25T12:52:37.141Z,7.25
2022-11-25T12:53:37.129Z,7.25
2022-11-25T12:54:37.259Z,7.25
2022-11-25T12:55:37.124Z,7.25
2022-11-25T12:56:37.081Z,7.25
2022-11-25T12:57:37.070Z,7.21
2022-11-25T12:58:37.120Z,7.21
2022-11-25T12:59:37.050Z,7.20
2022-11-25T13:00:41.992Z,7.20
2022-11-25T13:01:37.052Z,7.20
2022-11-25T13:02:37.109Z,7.20
2022-11-25T13:03:37.000Z,7.20
2022-11-25T13:04:37.220Z,7.21
2022-11-25T13:05:41.013Z,7.20
2022-11-25T13:06:36.971Z,7.21
2022-11-25T13:07:36.986Z,7.20
2022-11-25T13:08:36.935Z,7.23
2022-11-25T13:09:36.916Z,7.24
2022-11-25T13:10:36.908Z,7.25
2022-11-25T13:11:37.316Z,7.28
2022-11-25T13:12:37.236Z,7.29
2022-11-25T13:13:37.220Z,7.32
2022-11-25T13:14:37.898Z,7.29
2022-11-25T13:15:37.447Z,7.32
2022-11-25T13:16:37.276Z,7.32
2022-11-25T13:17:36.882Z,7.33
2022-11-25T13:18:36.806Z,7.33